createdAt,value
2019-05-25T00:00:52.879Z,40.00
2019-05-25T00:03:45.809Z,40.00
2019-05-25T00:06:38.908Z,40.80
2019-05-25T00:09:31.914Z,40.10
2019-05-25T00:12:24.857Z,40.10
2019-05-25T00:15:19.069Z,40.30
2019-05-25T00:18:12.100Z,40.10
2019-05-25T00:21:04.998Z,40.10
2019-05-25T00:24:11.185Z,40.30
2019-05-25T00:26:51.490Z,40.30
2019-05-25T00:29:45.581Z,40.40
2019-05-25T00:32:37.953Z,40.40
2019-05-25T00:35:30.700Z,40.40
2019-05-25T00:38:25.607Z,40.60
2019-05-25T00:41:19.585Z,40.60
2019-05-25T00:44:13.142Z,40.50
2019-05-25T00:47:06.310Z,40.70
2019-05-25T00:49:59.601Z,40.70
2019-05-25T00:52:53.135Z,40.60
2019-05-25T00:55:47.926Z,40.70
2019-05-25T00:58:41.582Z,40.90
2019-05-25T01:01:35.024Z,41.40
2019-05-25T01:04:28.040Z,41.00
2019-05-25T01:07:21.120Z,40.80
2019-05-25T01:10:15.523Z,41.20
2019-05-25T01:13:08.588Z,41.30
2019-05-25T01:16:02.599Z,41.00
2019-05-25T01:18:59.040Z,40.80
2019-05-25T01:21:54.060Z,40.70
2019-05-25T01:24:48.369Z,41.00
2019-05-25T01:27:41.512Z,40.90
2019-05-25T01:30:35.321Z,41.20
2019-05-25T01:33:28.790Z,41.20
2019-05-25T01:36:22.585Z,41.10
2019-05-25T01:39:16.387Z,41.10
2019-05-25T01:42:09.730Z,41.00
2019-05-25T01:45:02.554Z,41.00
2019-05-25T01:47:57.210Z,41.10
2019-05-25T01:50:50.121Z,41.10
2019-05-25T01:53:43.343Z,40.90
2019-05-25T01:56:36.696Z,41.00
2019-05-25T01:59:30.433Z,40.80
2019-05-25T02:02:23.197Z,40.60
2019-05-25T02:05:16.844Z,40.30
2019-05-25T02:08:09.947Z,40.20
2019-05-25T02:11:02.760Z,40.00
2019-05-25T02:13:57.058Z,39.90
2019-05-25T02:16:49.828Z,39.80
2019-05-25T02:19:42.913Z,39.40
2019-05-25T02:22:35.975Z,39.10
2019-05-25T02:25:30.313Z,39.00
2019-05-25T02:28:22.621Z,38.80
2019-05-25T02:31:16.996Z,39.00
2019-05-25T02:34:10.720Z,38.60
2019-05-25T02:37:04.509Z,38.40
2019-05-25T02:39:57.487Z,38.30
2019-05-25T02:42:50.195Z,38.30
2019-05-25T02:45:43.263Z,38.20
2019-05-25T02:48:36.214Z,38.20
2019-05-25T02:51:30.487Z,38.00
2019-05-25T02:54:23.169Z,38.00
2019-05-25T02:57:16.027Z,37.30
2019-05-25T03:00:09.849Z,38.10
2019-05-25T03:03:04.775Z,38.80
2019-05-25T03:05:58.524Z,38.10
2019-05-25T03:08:51.638Z,37.90
2019-05-25T03:11:44.465Z,37.80
2019-05-25T03:14:36.974Z,37.80
2019-05-25T03:17:30.259Z,37.30
2019-05-25T03:20:23.899Z,37.20
2019-05-25T03:23:17.569Z,37.00
2019-05-25T03:26:10.667Z,37.00
2019-05-25T03:29:06.124Z,36.90
2019-05-25T03:31:59.977Z,36.70
2019-05-25T03:34:54.971Z,36.70
2019-05-25T03:37:48.283Z,36.50
2019-05-25T03:40:42.963Z,36.50
2019-05-25T03:43:36.259Z,36.80
2019-05-25T03:46:29.612Z,36.00
2019-05-25T03:49:24.258Z,35.40
2019-05-25T03:52:17.333Z,35.30
2019-05-25T03:55:13.964Z,35.00
2019-05-25T03:58:08.622Z,35.00
2019-05-25T04:01:03.453Z,34.70
2019-05-25T04:03:57.082Z,34.50
2019-05-25T04:06:50.056Z,34.40
2019-05-25T04:09:43.029Z,34.30
2019-05-25T04:12:36.299Z,34.20
2019-05-25T04:15:30.542Z,34.40
2019-05-25T04:18:25.472Z,34.80
2019-05-25T04:21:31.880Z,34.90
2019-05-25T04:24:35.166Z,34.90
2019-05-25T04:27:38.036Z,35.00
2019-05-25T04:30:49.119Z,35.10
2019-05-25T04:33:47.496Z,35.00
2019-05-25T04:37:20.489Z,35.00
2019-05-25T04:40:18.155Z,34.90
2019-05-25T04:43:24.570Z,35.00
2019-05-25T04:46:22.085Z,34.90
2019-05-25T04:49:17.140Z,34.80
2019-05-25T04:56:20.591Z,35.00
2019-05-25T04:59:44.540Z,35.00
2019-05-25T05:02:22.479Z,35.00
2019-05-25T05:06:22.888Z,34.90
2019-05-25T05:09:02.425Z,34.80
2019-05-25T05:12:26.031Z,35.00
2019-05-25T05:15:21.098Z,34.90
2019-05-25T05:18:14.100Z,34.60
2019-05-25T05:21:07.386Z,34.30
2019-05-25T05:24:12.759Z,33.90
2019-05-25T05:27:06.674Z,33.70
2019-05-25T05:30:01.872Z,33.80
2019-05-25T05:32:55.340Z,33.60
2019-05-25T05:35:58.727Z,33.60
2019-05-25T05:39:02.684Z,33.70
2019-05-25T05:42:01.324Z,33.50
2019-05-25T05:46:03.411Z,33.40
2019-05-25T05:48:30.455Z,33.00
2019-05-25T05:51:27.931Z,33.90
2019-05-25T05:54:28.394Z,33.20
2019-05-25T05:58:03.783Z,33.10
2019-05-25T06:01:25.408Z,33.10
2019-05-25T06:04:30.180Z,33.60
2019-05-25T06:08:00.328Z,32.70
2019-05-25T06:11:42.669Z,32.30
2019-05-25T06:14:41.067Z,32.20
2019-05-25T06:17:43.591Z,32.00
2019-05-25T06:20:46.954Z,32.10
2019-05-25T06:23:41.396Z,32.00
2019-05-25T06:29:53.279Z,31.60
2019-05-25T06:32:47.652Z,31.30
2019-05-25T06:35:44.853Z,31.00
2019-05-25T06:38:38.443Z,30.80
2019-05-25T06:41:33.582Z,30.60
2019-05-25T06:45:40.546Z,30.30
2019-05-25T06:48:09.232Z,30.30
2019-05-25T06:54:31.356Z,29.90
2019-05-25T06:57:43.384Z,29.80
2019-05-25T07:00:41.848Z,30.00
2019-05-25T07:03:40.962Z,30.00
2019-05-25T07:06:39.240Z,29.90
2019-05-25T07:09:33.793Z,29.90
2019-05-25T07:12:34.448Z,29.90
2019-05-25T07:15:30.267Z,29.90
2019-05-25T07:18:24.954Z,29.80
2019-05-25T07:21:20.186Z,29.70
2019-05-25T07:24:16.212Z,29.70
2019-05-25T07:27:10.566Z,29.90
2019-05-25T07:30:28.721Z,29.80
2019-05-25T07:33:27.505Z,29.80
2019-05-25T07:36:24.080Z,29.80
2019-05-25T07:39:23.325Z,29.50
2019-05-25T07:42:22.030Z,29.50
2019-05-25T07:45:17.395Z,29.50
2019-05-25T07:48:13.504Z,29.30
2019-05-25T07:51:09.853Z,29.20
2019-05-25T07:55:25.649Z,29.20
2019-05-25T08:01:12.499Z,29.00
2019-05-25T08:04:07.475Z,28.90
2019-05-25T08:07:04.968Z,28.80
2019-05-25T08:10:00.939Z,28.80
2019-05-25T08:12:59.336Z,28.70
2019-05-25T08:15:57.495Z,28.40
2019-05-25T08:18:57.970Z,28.00
2019-05-25T08:21:54.535Z,27.80
2019-05-25T08:24:49.805Z,27.70
2019-05-25T08:27:42.923Z,27.60
2019-05-25T08:30:38.091Z,28.20
2019-05-25T08:33:36.615Z,28.60
2019-05-25T08:36:31.506Z,29.00
2019-05-25T08:39:34.332Z,29.20
2019-05-25T08:42:29.386Z,28.60
2019-05-25T08:45:26.002Z,28.10
2019-05-25T08:48:19.601Z,28.00
2019-05-25T08:51:13.741Z,27.90
2019-05-25T08:54:07.188Z,27.90
2019-05-25T08:57:16.108Z,27.70
2019-05-25T09:00:06.830Z,27.40
2019-05-25T09:03:04.716Z,27.00
2019-05-25T09:06:00.161Z,26.80
2019-05-25T09:08:53.944Z,26.60
2019-05-25T09:11:47.589Z,26.60
2019-05-25T09:14:41.349Z,26.60
2019-05-25T09:17:38.228Z,26.70
2019-05-25T09:20:32.314Z,26.80
2019-05-25T09:23:31.685Z,26.90
2019-05-25T09:26:30.103Z,26.90
2019-05-25T09:29:41.632Z,26.90
2019-05-25T09:36:09.441Z,27.20
2019-05-25T09:39:22.689Z,27.50
2019-05-25T09:42:15.887Z,27.60
2019-05-25T09:45:14.230Z,27.50
2019-05-25T09:48:09.509Z,27.30
2019-05-25T09:51:16.320Z,27.20
2019-05-25T09:54:08.240Z,27.20
2019-05-25T09:57:02.129Z,26.70
2019-05-25T09:59:55.914Z,26.40
2019-05-25T10:03:04.572Z,26.30
2019-05-25T10:06:13.319Z,26.00
2019-05-25T10:10:26.236Z,26.00
2019-05-25T10:12:49.775Z,25.50
2019-05-25T10:16:01.633Z,25.30
2019-05-25T10:19:11.522Z,25.20
2019-05-25T10:22:41.499Z,25.40
2019-05-25T10:25:37.344Z,25.20
2019-05-25T10:28:34.608Z,24.90
2019-05-25T10:31:32.843Z,25.50
2019-05-25T10:34:29.092Z,26.30
2019-05-25T10:37:29.105Z,26.40
2019-05-25T10:40:22.919Z,26.20
2019-05-25T10:43:16.319Z,26.10
2019-05-25T10:50:11.556Z,26.10
2019-05-25T10:53:07.740Z,26.10
2019-05-25T10:56:01.570Z,26.50
2019-05-25T10:59:01.444Z,26.80
2019-05-25T11:01:59.650Z,26.80
2019-05-25T11:04:57.162Z,26.60
2019-05-25T11:07:52.350Z,26.70
2019-05-25T11:10:45.201Z,26.60
2019-05-25T11:13:46.347Z,26.80
2019-05-25T11:16:39.802Z,26.90
2019-05-25T11:19:32.797Z,26.80
2019-05-25T11:22:47.565Z,27.00
2019-05-25T11:25:39.844Z,27.10
2019-05-25T11:28:33.403Z,27.40
2019-05-25T11:31:55.693Z,27.50
2019-05-25T11:34:42.488Z,27.40
2019-05-25T11:37:37.172Z,27.30
2019-05-25T11:40:44.664Z,27.50
2019-05-25T11:43:27.225Z,27.40
2019-05-25T11:46:20.866Z,27.40
2019-05-25T11:49:22.443Z,27.50
2019-05-25T11:52:10.229Z,27.70
2019-05-25T11:55:13.513Z,27.40
2019-05-25T11:58:14.225Z,27.40
2019-05-25T12:01:08.479Z,27.60
2019-05-25T12:04:04.681Z,27.10
2019-05-25T12:07:03.970Z,27.00
2019-05-25T12:10:06.557Z,27.00
2019-05-25T12:13:01.344Z,27.20
2019-05-25T12:15:57.152Z,27.40
2019-05-25T12:18:54.436Z,27.30
2019-05-25T12:21:46.995Z,27.20
2019-05-25T12:24:47.769Z,27.00
2019-05-25T12:27:41.984Z,27.50
2019-05-25T12:30:41.293Z,27.70
2019-05-25T12:33:36.769Z,27.80
2019-05-25T12:36:30.974Z,27.80
2019-05-25T12:39:26.690Z,27.90
2019-05-25T12:42:20.269Z,27.60
2019-05-25T12:45:14.917Z,27.60
2019-05-25T12:48:10.034Z,27.50
2019-05-25T12:51:03.636Z,26.80
2019-05-25T12:53:56.942Z,26.70
2019-05-25T12:56:50.245Z,26.80
2019-05-25T12:59:43.316Z,26.80
2019-05-25T13:02:36.127Z,26.50
2019-05-25T13:05:34.160Z,26.40
2019-05-25T13:08:24.078Z,26.40
2019-05-25T13:11:17.518Z,26.70
2019-05-25T13:14:14.722Z,26.80
2019-05-25T13:17:06.401Z,26.60
2019-05-25T13:20:00.199Z,26.40
2019-05-25T13:22:54.075Z,26.40
2019-05-25T13:25:47.190Z,26.30
2019-05-25T13:28:41.388Z,26.40
2019-05-25T13:31:36.310Z,26.40
2019-05-25T13:34:33.180Z,26.50
2019-05-25T13:37:27.713Z,26.50
2019-05-25T13:41:07.624Z,26.60
2019-05-25T13:43:49.692Z,26.50
2019-05-25T13:46:41.718Z,26.50
2019-05-25T13:49:37.878Z,26.50
2019-05-25T13:52:32.682Z,26.50
2019-05-25T13:55:27.235Z,26.70
2019-05-25T13:58:20.752Z,27.10
2019-05-25T14:01:27.455Z,27.50
2019-05-25T14:04:08.220Z,27.30
2019-05-25T14:07:01.286Z,27.60
2019-05-25T14:09:54.898Z,27.90
2019-05-25T14:12:49.845Z,27.90
2019-05-25T14:15:44.535Z,28.20
2019-05-25T14:18:38.228Z,28.20
2019-05-25T14:21:32.581Z,28.40
2019-05-25T14:24:26.070Z,28.50
2019-05-25T14:27:19.394Z,28.80
2019-05-25T14:30:15.195Z,28.70
2019-05-25T14:33:12.520Z,28.70
2019-05-25T14:36:07.605Z,28.80
2019-05-25T14:39:02.308Z,29.00
2019-05-25T14:41:58.007Z,29.00
2019-05-25T14:44:51.786Z,29.10
2019-05-25T14:47:45.466Z,29.10
2019-05-25T14:50:41.015Z,29.20
2019-05-25T14:53:36.729Z,29.20
2019-05-25T14:56:30.287Z,29.30
2019-05-25T14:59:25.302Z,29.30
2019-05-25T15:02:21.258Z,29.40
2019-05-25T15:05:14.649Z,29.50
2019-05-25T15:08:08.951Z,29.50
2019-05-25T15:11:02.828Z,29.60
2019-05-25T15:13:56.316Z,29.70
2019-05-25T15:16:50.730Z,29.70
2019-05-25T15:19:47.679Z,29.80
2019-05-25T15:22:46.487Z,30.40
2019-05-25T15:25:41.625Z,30.00
2019-05-25T15:28:37.084Z,30.00
2019-05-25T15:31:32.621Z,30.00
2019-05-25T15:34:29.241Z,30.00
2019-05-25T15:37:24.291Z,30.00
2019-05-25T15:40:17.964Z,30.00
2019-05-25T15:43:14.478Z,30.10
2019-05-25T15:46:10.465Z,30.20
2019-05-25T15:49:05.116Z,30.30
2019-05-25T15:51:58.851Z,30.10
2019-05-25T15:54:52.296Z,30.20
2019-05-25T15:57:48.410Z,30.50
2019-05-25T16:00:49.346Z,30.30
2019-05-25T16:03:45.415Z,30.40
2019-05-25T16:06:41.916Z,30.40
2019-05-25T16:09:37.685Z,30.60
2019-05-25T16:12:32.309Z,30.50
2019-05-25T16:15:33.483Z,30.70
2019-05-25T16:18:28.330Z,30.70
2019-05-25T16:21:23.479Z,30.80
2019-05-25T16:24:18.110Z,30.80
2019-05-25T16:27:11.893Z,30.90
2019-05-25T16:30:06.734Z,30.90
2019-05-25T16:33:11.689Z,30.90
2019-05-25T16:35:57.858Z,30.90
2019-05-25T16:38:48.979Z,31.00
2019-05-25T16:41:42.353Z,31.00
2019-05-25T16:44:35.462Z,31.10
2019-05-25T16:47:29.186Z,31.10
2019-05-25T16:50:22.794Z,31.10
2019-05-25T16:53:19.240Z,31.20
2019-05-25T16:56:13.400Z,31.30
2019-05-25T16:59:09.991Z,31.30
2019-05-25T17:02:04.960Z,31.40
2019-05-25T17:04:59.657Z,31.30
2019-05-25T17:07:56.253Z,31.30
2019-05-25T17:10:50.063Z,31.30
2019-05-25T17:13:43.946Z,31.30
2019-05-25T17:16:39.847Z,31.90
2019-05-25T17:19:33.772Z,31.30
2019-05-25T17:22:30.379Z,31.30
2019-05-25T17:25:24.485Z,31.30
2019-05-25T17:28:18.392Z,31.40
2019-05-25T17:31:13.493Z,31.30
2019-05-25T17:34:07.271Z,31.50
2019-05-25T17:37:01.639Z,31.50
2019-05-25T17:39:55.679Z,31.50
2019-05-25T17:42:49.468Z,31.60
2019-05-25T17:45:43.090Z,31.70
2019-05-25T17:48:37.377Z,31.70
2019-05-25T17:51:30.885Z,31.80
2019-05-25T17:54:25.992Z,31.80
2019-05-25T17:57:20.062Z,31.90
2019-05-25T18:00:14.562Z,32.00
2019-05-25T18:03:08.490Z,31.90
2019-05-25T18:06:02.024Z,31.90
2019-05-25T18:08:54.993Z,31.90
2019-05-25T18:11:48.839Z,32.10
2019-05-25T18:14:41.811Z,31.90
2019-05-25T18:17:34.736Z,32.00
2019-05-25T18:20:28.202Z,32.00
2019-05-25T18:23:23.186Z,32.10
2019-05-25T18:26:16.423Z,32.30
2019-05-25T18:29:09.731Z,32.20
2019-05-25T18:32:02.364Z,32.30
2019-05-25T18:34:55.835Z,32.30
2019-05-25T18:37:49.762Z,32.30
2019-05-25T18:40:43.528Z,32.30
2019-05-25T18:43:36.376Z,32.40
2019-05-25T18:46:30.482Z,32.50
2019-05-25T18:49:25.292Z,32.40
2019-05-25T18:52:20.548Z,32.60
2019-05-25T18:55:14.127Z,32.50
2019-05-25T18:58:07.578Z,32.60
2019-05-25T19:01:00.396Z,32.80
2019-05-25T19:03:53.124Z,32.70
2019-05-25T19:06:47.149Z,32.70
2019-05-25T19:09:41.378Z,33.60
2019-05-25T19:12:34.215Z,32.80
2019-05-25T19:15:27.284Z,32.80
2019-05-25T19:18:21.696Z,32.90
2019-05-25T19:21:15.704Z,32.90
2019-05-25T19:24:08.853Z,32.90
2019-05-25T19:27:02.368Z,33.00
2019-05-25T19:29:56.777Z,33.00
2019-05-25T19:32:49.851Z,33.00
2019-05-25T19:35:43.159Z,33.00
2019-05-25T19:38:36.279Z,33.10
2019-05-25T19:41:30.233Z,33.10
2019-05-25T19:44:23.374Z,33.20
2019-05-25T19:47:16.573Z,33.20
2019-05-25T19:50:10.324Z,33.20
2019-05-25T19:53:04.482Z,33.30
2019-05-25T19:55:58.368Z,33.20
2019-05-25T19:58:53.484Z,33.30
2019-05-25T20:01:48.593Z,33.30
2019-05-25T20:04:43.145Z,33.30
2019-05-25T20:07:36.592Z,33.30
2019-05-25T20:10:29.699Z,33.40
2019-05-25T20:13:23.549Z,33.40
2019-05-25T20:16:18.041Z,33.40
2019-05-25T20:19:11.981Z,33.40
2019-05-25T20:22:09.107Z,33.50
2019-05-25T20:25:00.739Z,33.50
2019-05-25T20:27:54.535Z,33.50
2019-05-25T20:30:49.244Z,33.60
2019-05-25T20:33:44.580Z,33.60
2019-05-25T20:36:39.341Z,33.60
2019-05-25T20:39:33.032Z,33.60
2019-05-25T20:42:26.545Z,33.70
2019-05-25T20:45:20.108Z,33.60
2019-05-25T20:48:14.251Z,33.70
2019-05-25T20:51:08.149Z,33.70
2019-05-25T20:54:02.352Z,34.00
2019-05-25T20:56:56.794Z,33.80
2019-05-25T20:59:52.281Z,33.80
2019-05-25T21:02:45.406Z,33.90
2019-05-25T21:05:49.623Z,33.90
2019-05-25T21:08:33.888Z,33.90
2019-05-25T21:11:27.020Z,34.00
2019-05-25T21:14:19.802Z,33.90
2019-05-25T21:17:13.358Z,34.00
2019-05-25T21:20:05.956Z,34.10
2019-05-25T21:23:02.341Z,34.10
2019-05-25T21:25:56.028Z,34.10
2019-05-25T21:28:48.913Z,34.10
2019-05-25T21:31:42.603Z,34.20
2019-05-25T21:34:35.475Z,34.20
2019-05-25T21:37:28.961Z,34.30
2019-05-25T21:40:21.962Z,34.30
2019-05-25T21:43:16.311Z,34.40
2019-05-25T21:46:10.273Z,34.30
2019-05-25T21:49:03.684Z,34.40
2019-05-25T21:51:56.609Z,34.40
2019-05-25T21:54:50.058Z,34.40
2019-05-25T21:57:43.064Z,34.00
2019-05-25T22:00:39.044Z,34.40
2019-05-25T22:03:32.638Z,34.50
2019-05-25T22:06:26.230Z,34.40
2019-05-25T22:09:20.483Z,34.40
2019-05-25T22:12:13.713Z,34.60
2019-05-25T22:15:06.888Z,34.50
2019-05-25T22:18:00.575Z,34.60
2019-05-25T22:20:53.794Z,34.50
2019-05-25T22:23:47.307Z,34.60
2019-05-25T22:26:41.984Z,34.60
2019-05-25T22:29:35.632Z,34.60
2019-05-25T22:32:28.654Z,34.60
2019-05-25T22:35:21.964Z,34.60
2019-05-25T22:38:15.646Z,34.60
2019-05-25T22:41:09.141Z,34.70
2019-05-25T22:44:02.213Z,34.70
2019-05-25T22:46:55.026Z,34.70
2019-05-25T22:49:48.372Z,34.80
2019-05-25T22:52:41.639Z,34.80
2019-05-25T22:55:35.000Z,34.80
2019-05-25T22:58:28.437Z,34.90
2019-05-25T23:01:21.672Z,34.70
2019-05-25T23:04:15.161Z,34.80
2019-05-25T23:07:10.215Z,34.80
2019-05-25T23:10:02.927Z,34.80
2019-05-25T23:12:58.283Z,34.80
2019-05-25T23:15:53.267Z,34.90
2019-05-25T23:18:47.251Z,34.90
2019-05-25T23:21:40.171Z,34.90
2019-05-25T23:24:33.042Z,34.90
2019-05-25T23:27:26.075Z,34.90
2019-05-25T23:30:20.314Z,34.90
2019-05-25T23:33:13.700Z,34.90
2019-05-25T23:36:06.643Z,35.00
2019-05-25T23:38:59.865Z,35.00
2019-05-25T23:41:52.864Z,35.00
2019-05-25T23:44:46.559Z,35.00
2019-05-25T23:47:40.018Z,35.00
2019-05-25T23:50:33.249Z,35.00
2019-05-25T23:53:26.661Z,35.80
2019-05-25T23:56:20.174Z,35.00
2019-05-25T23:59:14.027Z,35.00
